sensor_id;sensor_type;location;lat;lon;timestamp;P1;durP1;ratioP1;P2;durP2;ratioP2
12412;SDS011;13877;18.896;-99.222;2022-12-18T00:02:14;22.40;;;11.50;;
12412;SDS011;13877;18.896;-99.222;2022-12-18T00:04:41;22.85;;;11.70;;
12412;SDS011;13877;18.896;-99.222;2022-12-18T00:07:08;21.98;;;12.38;;
12412;SDS011;13877;18.896;-99.222;2022-12-18T00:09:35;24.17;;;12.05;;
12412;SDS011;13877;18.896;-99.222;2022-12-18T00:12:02;26.17;;;13.13;;
12412;SDS011;13877;18.896;-99.222;2022-12-18T00:14:29;29.23;;;13.00;;
12412;SDS011;13877;18.896;-99.222;2022-12-18T00:16:56;32.03;;;13.20;;
12412;SDS011;13877;18.896;-99.222;2022-12-18T00:19:26;23.03;;;11.33;;
12412;SDS011;13877;18.896;-99.222;2022-12-18T00:21:53;21.00;;;11.50;;
12412;SDS011;13877;18.896;-99.222;2022-12-18T00:24:20;25.08;;;11.63;;
12412;SDS011;13877;18.896;-99.222;2022-12-18T00:26:47;52.75;;;11.93;;
12412;SDS011;13877;18.896;-99.222;2022-12-18T00:29:14;28.15;;;11.90;;
12412;SDS011;13877;18.896;-99.222;2022-12-18T00:31:42;22.92;;;12.27;;
12412;SDS011;13877;18.896;-99.222;2022-12-18T00:34:10;33.28;;;14.57;;
12412;SDS011;13877;18.896;-99.222;2022-12-18T00:36:39;23.48;;;13.13;;
12412;SDS011;13877;18.896;-99.222;2022-12-18T00:39:07;38.45;;;14.88;;
12412;SDS011;13877;18.896;-99.222;2022-12-18T00:41:36;42.58;;;16.73;;
12412;SDS011;13877;18.896;-99.222;2022-12-18T00:44:21;39.90;;;15.68;;
12412;SDS011;13877;18.896;-99.222;2022-12-18T00:46:50;36.75;;;14.00;;
12412;SDS011;13877;18.896;-99.222;2022-12-18T00:49:17;42.75;;;16.65;;
12412;SDS011;13877;18.896;-99.222;2022-12-18T00:51:45;33.10;;;16.52;;
12412;SDS011;13877;18.896;-99.222;2022-12-18T00:54:12;31.80;;;15.15;;
12412;SDS011;13877;18.896;-99.222;2022-12-18T00:56:39;30.15;;;14.45;;
12412;SDS011;13877;18.896;-99.222;2022-12-18T00:59:06;25.80;;;12.15;;
12412;SDS011;13877;18.896;-99.222;2022-12-18T01:01:33;29.48;;;13.77;;
12412;SDS011;13877;18.896;-99.222;2022-12-18T01:04:01;26.90;;;13.48;;
12412;SDS011;13877;18.896;-99.222;2022-12-18T01:06:28;31.38;;;14.13;;
12412;SDS011;13877;18.896;-99.222;2022-12-18T01:08:55;35.42;;;14.65;;
12412;SDS011;13877;18.896;-99.222;2022-12-18T01:11:22;29.38;;;14.55;;
12412;SDS011;13877;18.896;-99.222;2022-12-18T01:13:51;31.25;;;14.48;;
12412;SDS011;13877;18.896;-99.222;2022-12-18T01:18:51;28.85;;;16.15;;
12412;SDS011;13877;18.896;-99.222;2022-12-18T01:21:19;38.75;;;16.98;;
12412;SDS011;13877;18.896;-99.222;2022-12-18T01:23:47;36.00;;;16.65;;
12412;SDS011;13877;18.896;-99.222;2022-12-18T01:26:18;43.05;;;17.73;;
12412;SDS011;13877;18.896;-99.222;2022-12-18T01:28:45;49.80;;;17.45;;
12412;SDS011;13877;18.896;-99.222;2022-12-18T01:31:20;32.40;;;17.42;;
12412;SDS011;13877;18.896;-99.222;2022-12-18T01:33:50;39.90;;;18.85;;
12412;SDS011;13877;18.896;-99.222;2022-12-18T01:36:27;50.15;;;20.92;;
12412;SDS011;13877;18.896;-99.222;2022-12-18T01:38:56;37.65;;;19.98;;
12412;SDS011;13877;18.896;-99.222;2022-12-18T01:41:26;41.90;;;20.77;;
12412;SDS011;13877;18.896;-99.222;2022-12-18T01:50:21;53.67;;;23.20;;
12412;SDS011;13877;18.896;-99.222;2022-12-18T01:52:53;41.50;;;21.15;;
12412;SDS011;13877;18.896;-99.222;2022-12-18T01:55:25;40.58;;;20.52;;
12412;SDS011;13877;18.896;-99.222;2022-12-18T01:57:56;35.20;;;20.52;;
12412;SDS011;13877;18.896;-99.222;2022-12-18T02:00:25;45.45;;;21.00;;
12412;SDS011;13877;18.896;-99.222;2022-12-18T02:02:54;42.03;;;21.40;;
12412;SDS011;13877;18.896;-99.222;2022-12-18T02:08:16;95.80;;;34.35;;
12412;SDS011;13877;18.896;-99.222;2022-12-18T02:11:06;45.38;;;21.55;;
12412;SDS011;13877;18.896;-99.222;2022-12-18T02:13:46;41.50;;;20.80;;
12412;SDS011;13877;18.896;-99.222;2022-12-18T02:16:50;42.67;;;21.67;;
12412;SDS011;13877;18.896;-99.222;2022-12-18T02:19:39;41.50;;;20.02;;
12412;SDS011;13877;18.896;-99.222;2022-12-18T02:28:20;24.73;;;14.70;;
12412;SDS011;13877;18.896;-99.222;2022-12-18T02:30:56;39.00;;;14.10;;
12412;SDS011;13877;18.896;-99.222;2022-12-18T02:33:27;25.38;;;13.43;;
12412;SDS011;13877;18.896;-99.222;2022-12-18T02:35:56;31.73;;;15.02;;
12412;SDS011;13877;18.896;-99.222;2022-12-18T02:38:26;26.42;;;14.35;;
12412;SDS011;13877;18.896;-99.222;2022-12-18T02:40:59;32.15;;;16.30;;
12412;SDS011;13877;18.896;-99.222;2022-12-18T02:43:26;27.30;;;16.25;;
12412;SDS011;13877;18.896;-99.222;2022-12-18T02:45:59;34.35;;;16.77;;
12412;SDS011;13877;18.896;-99.222;2022-12-18T02:48:31;38.40;;;16.02;;
12412;SDS011;13877;18.896;-99.222;2022-12-18T02:51:18;28.20;;;14.38;;
12412;SDS011;13877;18.896;-99.222;2022-12-18T02:54:08;35.00;;;15.90;;
12412;SDS011;13877;18.896;-99.222;2022-12-18T02:56:47;27.52;;;14.65;;
12412;SDS011;13877;18.896;-99.222;2022-12-18T02:59:21;21.92;;;13.50;;
12412;SDS011;13877;18.896;-99.222;2022-12-18T03:05:01;27.40;;;14.45;;
12412;SDS011;13877;18.896;-99.222;2022-12-18T03:07:38;30.92;;;16.38;;
12412;SDS011;13877;18.896;-99.222;2022-12-18T03:10:14;35.08;;;14.73;;
12412;SDS011;13877;18.896;-99.222;2022-12-18T03:13:06;34.85;;;16.08;;
12412;SDS011;13877;18.896;-99.222;2022-12-18T03:15:35;28.02;;;15.18;;
12412;SDS011;13877;18.896;-99.222;2022-12-18T03:18:16;31.02;;;15.50;;
12412;SDS011;13877;18.896;-99.222;2022-12-18T03:21:05;29.75;;;14.77;;
12412;SDS011;13877;18.896;-99.222;2022-12-18T03:23:38;41.42;;;15.90;;
12412;SDS011;13877;18.896;-99.222;2022-12-18T03:26:12;33.70;;;14.88;;
12412;SDS011;13877;18.896;-99.222;2022-12-18T03:28:56;28.17;;;13.88;;
12412;SDS011;13877;18.896;-99.222;2022-12-18T03:31:27;26.00;;;14.75;;
12412;SDS011;13877;18.896;-99.222;2022-12-18T03:34:04;30.85;;;13.82;;
12412;SDS011;13877;18.896;-99.222;2022-12-18T03:36:43;26.65;;;13.60;;
12412;SDS011;13877;18.896;-99.222;2022-12-18T03:39:12;29.77;;;14.48;;
12412;SDS011;13877;18.896;-99.222;2022-12-18T03:41:43;28.05;;;14.80;;
12412;SDS011;13877;18.896;-99.222;2022-12-18T03:44:40;29.98;;;16.02;;
12412;SDS011;13877;18.896;-99.222;2022-12-18T03:47:19;24.73;;;14.43;;
12412;SDS011;13877;18.896;-99.222;2022-12-18T03:49:59;25.13;;;14.57;;
12412;SDS011;13877;18.896;-99.222;2022-12-18T03:52:36;24.95;;;13.80;;
12412;SDS011;13877;18.896;-99.222;2022-12-18T03:55:27;25.40;;;13.25;;
12412;SDS011;13877;18.896;-99.222;2022-12-18T03:58:02;26.73;;;13.90;;
12412;SDS011;13877;18.896;-99.222;2022-12-18T04:00:43;22.75;;;14.63;;
12412;SDS011;13877;18.896;-99.222;2022-12-18T04:03:11;27.05;;;14.43;;
12412;SDS011;13877;18.896;-99.222;2022-12-18T04:05:46;29.67;;;14.23;;
12412;SDS011;13877;18.896;-99.222;2022-12-18T04:08:18;24.58;;;15.32;;
12412;SDS011;13877;18.896;-99.222;2022-12-18T04:10:56;30.77;;;16.25;;
12412;SDS011;13877;18.896;-99.222;2022-12-18T04:13:24;35.67;;;15.90;;
12412;SDS011;13877;18.896;-99.222;2022-12-18T04:15:56;30.73;;;17.25;;
12412;SDS011;13877;18.896;-99.222;2022-12-18T04:18:24;28.50;;;17.10;;
12412;SDS011;13877;18.896;-99.222;2022-12-18T04:20:51;33.10;;;17.25;;
12412;SDS011;13877;18.896;-99.222;2022-12-18T04:23:18;36.35;;;18.10;;
12412;SDS011;13877;18.896;-99.222;2022-12-18T04:25:49;36.85;;;18.30;;
12412;SDS011;13877;18.896;-99.222;2022-12-18T04:28:26;38.45;;;19.10;;
12412;SDS011;13877;18.896;-99.222;2022-12-18T04:30:53;41.65;;;19.75;;
12412;SDS011;13877;18.896;-99.222;2022-12-18T04:33:21;47.83;;;20.42;;
12412;SDS011;13877;18.896;-99.222;2022-12-18T04:35:48;47.58;;;19.95;;
12412;SDS011;13877;18.896;-99.222;2022-12-18T04:38:14;37.38;;;19.42;;
12412;SDS011;13877;18.896;-99.222;2022-12-18T04:40:43;38.88;;;19.92;;
12412;SDS011;13877;18.896;-99.222;2022-12-18T04:43:19;38.00;;;20.02;;
12412;SDS011;13877;18.896;-99.222;2022-12-18T04:45:46;40.08;;;21.27;;
12412;SDS011;13877;18.896;-99.222;2022-12-18T04:48:13;35.70;;;20.20;;
12412;SDS011;13877;18.896;-99.222;2022-12-18T04:50:40;39.13;;;20.02;;
12412;SDS011;13877;18.896;-99.222;2022-12-18T04:53:07;36.83;;;20.25;;
12412;SDS011;13877;18.896;-99.222;2022-12-18T04:55:34;40.03;;;21.95;;
12412;SDS011;13877;18.896;-99.222;2022-12-18T04:58:01;40.72;;;21.52;;
12412;SDS011;13877;18.896;-99.222;2022-12-18T05:00:28;39.20;;;21.35;;
12412;SDS011;13877;18.896;-99.222;2022-12-18T05:02:54;44.70;;;21.17;;
12412;SDS011;13877;18.896;-99.222;2022-12-18T05:05:21;40.78;;;21.60;;
12412;SDS011;13877;18.896;-99.222;2022-12-18T05:07:49;42.38;;;22.23;;
12412;SDS011;13877;18.896;-99.222;2022-12-18T05:10:15;40.65;;;20.67;;
12412;SDS011;13877;18.896;-99.222;2022-12-18T05:12:42;42.60;;;20.63;;
12412;SDS011;13877;18.896;-99.222;2022-12-18T05:15:28;35.28;;;19.48;;
12412;SDS011;13877;18.896;-99.222;2022-12-18T05:17:57;42.40;;;20.48;;
12412;SDS011;13877;18.896;-99.222;2022-12-18T05:20:24;46.35;;;19.30;;
12412;SDS011;13877;18.896;-99.222;2022-12-18T05:22:53;40.20;;;19.80;;
12412;SDS011;13877;18.896;-99.222;2022-12-18T05:25:20;37.50;;;20.17;;
12412;SDS011;13877;18.896;-99.222;2022-12-18T05:27:48;37.97;;;20.13;;
12412;SDS011;13877;18.896;-99.222;2022-12-18T05:30:15;35.70;;;20.92;;
12412;SDS011;13877;18.896;-99.222;2022-12-18T05:32:42;41.67;;;21.40;;
12412;SDS011;13877;18.896;-99.222;2022-12-18T05:35:09;39.35;;;21.83;;
12412;SDS011;13877;18.896;-99.222;2022-12-18T05:37:37;41.55;;;21.90;;
12412;SDS011;13877;18.896;-99.222;2022-12-18T05:40:04;42.78;;;22.52;;
12412;SDS011;13877;18.896;-99.222;2022-12-18T05:42:32;52.75;;;23.15;;
12412;SDS011;13877;18.896;-99.222;2022-12-18T05:44:59;44.10;;;23.70;;
12412;SDS011;13877;18.896;-99.222;2022-12-18T05:47:27;47.15;;;22.77;;
12412;SDS011;13877;18.896;-99.222;2022-12-18T05:49:54;47.65;;;22.92;;
12412;SDS011;13877;18.896;-99.222;2022-12-18T05:52:22;51.33;;;22.88;;
12412;SDS011;13877;18.896;-99.222;2022-12-18T05:54:49;43.75;;;23.63;;
12412;SDS011;13877;18.896;-99.222;2022-12-18T05:57:16;47.80;;;23.38;;
12412;SDS011;13877;18.896;-99.222;2022-12-18T05:59:43;46.15;;;22.45;;
12412;SDS011;13877;18.896;-99.222;2022-12-18T06:02:10;52.78;;;23.50;;
12412;SDS011;13877;18.896;-99.222;2022-12-18T06:04:37;49.72;;;25.60;;
12412;SDS011;13877;18.896;-99.222;2022-12-18T06:07:04;53.85;;;25.08;;
12412;SDS011;13877;18.896;-99.222;2022-12-18T06:09:31;48.35;;;24.52;;
12412;SDS011;13877;18.896;-99.222;2022-12-18T06:11:58;49.50;;;24.98;;
12412;SDS011;13877;18.896;-99.222;2022-12-18T06:14:24;51.75;;;25.08;;
12412;SDS011;13877;18.896;-99.222;2022-12-18T06:16:51;49.15;;;25.17;;
12412;SDS011;13877;18.896;-99.222;2022-12-18T06:19:18;51.25;;;25.27;;
12412;SDS011;13877;18.896;-99.222;2022-12-18T06:21:45;46.55;;;22.27;;
12412;SDS011;13877;18.896;-99.222;2022-12-18T06:24:12;45.15;;;22.40;;
12412;SDS011;13877;18.896;-99.222;2022-12-18T06:26:39;56.15;;;24.27;;
12412;SDS011;13877;18.896;-99.222;2022-12-18T06:29:06;62.90;;;25.50;;
12412;SDS011;13877;18.896;-99.222;2022-12-18T06:31:33;52.25;;;24.55;;
12412;SDS011;13877;18.896;-99.222;2022-12-18T06:34:03;56.78;;;24.52;;
12412;SDS011;13877;18.896;-99.222;2022-12-18T06:36:30;44.13;;;24.55;;
12412;SDS011;13877;18.896;-99.222;2022-12-18T06:38:57;46.78;;;22.80;;
12412;SDS011;13877;18.896;-99.222;2022-12-18T06:41:25;46.42;;;24.02;;
12412;SDS011;13877;18.896;-99.222;2022-12-18T06:43:52;46.95;;;22.98;;
12412;SDS011;13877;18.896;-99.222;2022-12-18T06:46:19;44.30;;;24.17;;
12412;SDS011;13877;18.896;-99.222;2022-12-18T06:48:47;52.15;;;23.80;;
12412;SDS011;13877;18.896;-99.222;2022-12-18T06:51:16;48.22;;;25.08;;
12412;SDS011;13877;18.896;-99.222;2022-12-18T06:53:44;46.35;;;26.15;;
12412;SDS011;13877;18.896;-99.222;2022-12-18T06:56:11;51.25;;;25.63;;
12412;SDS011;13877;18.896;-99.222;2022-12-18T06:58:38;43.13;;;24.83;;
12412;SDS011;13877;18.896;-99.222;2022-12-18T07:01:08;44.13;;;23.30;;
12412;SDS011;13877;18.896;-99.222;2022-12-18T07:03:37;45.08;;;25.27;;
12412;SDS011;13877;18.896;-99.222;2022-12-18T07:06:04;43.65;;;23.30;;
12412;SDS011;13877;18.896;-99.222;2022-12-18T07:08:31;48.00;;;23.35;;
12412;SDS011;13877;18.896;-99.222;2022-12-18T07:10:58;48.75;;;23.38;;
12412;SDS011;13877;18.896;-99.222;2022-12-18T07:13:28;49.58;;;24.00;;
12412;SDS011;13877;18.896;-99.222;2022-12-18T07:15:55;48.78;;;24.65;;
12412;SDS011;13877;18.896;-99.222;2022-12-18T07:18:29;52.28;;;23.02;;
12412;SDS011;13877;18.896;-99.222;2022-12-18T07:20:55;53.67;;;22.15;;
12412;SDS011;13877;18.896;-99.222;2022-12-18T07:23:23;36.13;;;20.73;;
12412;SDS011;13877;18.896;-99.222;2022-12-18T07:25:49;43.33;;;21.02;;
12412;SDS011;13877;18.896;-99.222;2022-12-18T07:28:16;44.95;;;21.70;;
12412;SDS011;13877;18.896;-99.222;2022-12-18T07:30:43;37.00;;;20.48;;
12412;SDS011;13877;18.896;-99.222;2022-12-18T07:33:10;43.50;;;21.10;;
12412;SDS011;13877;18.896;-99.222;2022-12-18T07:35:36;38.95;;;19.20;;
12412;SDS011;13877;18.896;-99.222;2022-12-18T07:38:04;37.97;;;18.98;;
12412;SDS011;13877;18.896;-99.222;2022-12-18T07:40:30;35.83;;;18.63;;
12412;SDS011;13877;18.896;-99.222;2022-12-18T07:42:57;34.03;;;19.63;;
12412;SDS011;13877;18.896;-99.222;2022-12-18T07:45:24;38.78;;;18.95;;
12412;SDS011;13877;18.896;-99.222;2022-12-18T07:47:51;28.45;;;16.75;;
12412;SDS011;13877;18.896;-99.222;2022-12-18T07:50:18;28.00;;;14.90;;
12412;SDS011;13877;18.896;-99.222;2022-12-18T07:52:45;27.13;;;15.63;;
12412;SDS011;13877;18.896;-99.222;2022-12-18T07:55:12;24.63;;;14.68;;
12412;SDS011;13877;18.896;-99.222;2022-12-18T07:57:39;32.05;;;16.17;;
12412;SDS011;13877;18.896;-99.222;2022-12-18T08:00:06;31.00;;;16.92;;
12412;SDS011;13877;18.896;-99.222;2022-12-18T08:02:37;27.00;;;16.23;;
12412;SDS011;13877;18.896;-99.222;2022-12-18T08:05:04;24.10;;;13.82;;
12412;SDS011;13877;18.896;-99.222;2022-12-18T08:07:31;23.95;;;13.48;;
12412;SDS011;13877;18.896;-99.222;2022-12-18T08:09:58;24.13;;;13.05;;
12412;SDS011;13877;18.896;-99.222;2022-12-18T08:12:25;27.98;;;13.60;;
12412;SDS011;13877;18.896;-99.222;2022-12-18T08:14:52;26.48;;;13.52;;
12412;SDS011;13877;18.896;-99.222;2022-12-18T08:17:19;23.17;;;13.07;;
12412;SDS011;13877;18.896;-99.222;2022-12-18T08:19:46;22.38;;;13.45;;
12412;SDS011;13877;18.896;-99.222;2022-12-18T08:22:13;21.52;;;12.90;;
12412;SDS011;13877;18.896;-99.222;2022-12-18T08:24:42;22.27;;;13.73;;
12412;SDS011;13877;18.896;-99.222;2022-12-18T08:27:09;22.85;;;12.43;;
12412;SDS011;13877;18.896;-99.222;2022-12-18T08:29:36;22.63;;;13.40;;
12412;SDS011;13877;18.896;-99.222;2022-12-18T08:32:03;21.90;;;13.05;;
12412;SDS011;13877;18.896;-99.222;2022-12-18T08:34:30;22.15;;;13.23;;
12412;SDS011;13877;18.896;-99.222;2022-12-18T08:36:57;26.10;;;13.00;;
12412;SDS011;13877;18.896;-99.222;2022-12-18T08:39:24;22.45;;;12.52;;
12412;SDS011;13877;18.896;-99.222;2022-12-18T08:41:51;25.40;;;13.35;;
12412;SDS011;13877;18.896;-99.222;2022-12-18T08:44:36;19.40;;;12.55;;
12412;SDS011;13877;18.896;-99.222;2022-12-18T08:47:04;29.42;;;13.18;;
12412;SDS011;13877;18.896;-99.222;2022-12-18T08:49:34;24.88;;;12.85;;
12412;SDS011;13877;18.896;-99.222;2022-12-18T08:52:01;25.55;;;12.88;;
12412;SDS011;13877;18.896;-99.222;2022-12-18T08:54:29;27.95;;;15.65;;
12412;SDS011;13877;18.896;-99.222;2022-12-18T08:56:55;30.02;;;17.02;;
12412;SDS011;13877;18.896;-99.222;2022-12-18T08:59:23;30.42;;;17.42;;
12412;SDS011;13877;18.896;-99.222;2022-12-18T09:01:50;30.35;;;16.85;;
12412;SDS011;13877;18.896;-99.222;2022-12-18T09:04:19;33.88;;;17.67;;
12412;SDS011;13877;18.896;-99.222;2022-12-18T09:06:46;30.35;;;17.60;;
12412;SDS011;13877;18.896;-99.222;2022-12-18T09:09:13;38.70;;;19.48;;
12412;SDS011;13877;18.896;-99.222;2022-12-18T09:11:39;34.35;;;19.55;;
12412;SDS011;13877;18.896;-99.222;2022-12-18T09:14:06;34.05;;;18.70;;
12412;SDS011;13877;18.896;-99.222;2022-12-18T09:16:35;34.60;;;19.25;;
12412;SDS011;13877;18.896;-99.222;2022-12-18T09:19:02;33.03;;;17.95;;
12412;SDS011;13877;18.896;-99.222;2022-12-18T09:21:31;37.63;;;18.63;;
12412;SDS011;13877;18.896;-99.222;2022-12-18T09:24:00;41.35;;;17.92;;
12412;SDS011;13877;18.896;-99.222;2022-12-18T09:26:27;37.20;;;19.52;;
12412;SDS011;13877;18.896;-99.222;2022-12-18T09:28:53;35.70;;;18.25;;
12412;SDS011;13877;18.896;-99.222;2022-12-18T09:31:21;31.38;;;16.15;;
12412;SDS011;13877;18.896;-99.222;2022-12-18T09:33:50;40.65;;;19.02;;
12412;SDS011;13877;18.896;-99.222;2022-12-18T09:36:17;34.10;;;18.23;;
12412;SDS011;13877;18.896;-99.222;2022-12-18T09:38:45;37.50;;;18.77;;
12412;SDS011;13877;18.896;-99.222;2022-12-18T09:43:59;35.55;;;17.60;;
12412;SDS011;13877;18.896;-99.222;2022-12-18T09:46:30;43.00;;;18.45;;
12412;SDS011;13877;18.896;-99.222;2022-12-18T09:49:02;35.83;;;17.67;;
12412;SDS011;13877;18.896;-99.222;2022-12-18T09:51:43;39.63;;;18.20;;
12412;SDS011;13877;18.896;-99.222;2022-12-18T09:54:33;35.30;;;18.65;;
12412;SDS011;13877;18.896;-99.222;2022-12-18T09:57:05;36.83;;;16.70;;
12412;SDS011;13877;18.896;-99.222;2022-12-18T09:59:35;43.28;;;16.38;;
12412;SDS011;13877;18.896;-99.222;2022-12-18T10:02:19;34.35;;;17.27;;
12412;SDS011;13877;18.896;-99.222;2022-12-18T10:05:24;37.70;;;18.42;;
12412;SDS011;13877;18.896;-99.222;2022-12-18T10:08:03;42.55;;;19.88;;
12412;SDS011;13877;18.896;-99.222;2022-12-18T10:10:37;33.75;;;19.13;;
12412;SDS011;13877;18.896;-99.222;2022-12-18T10:13:20;39.15;;;19.17;;
12412;SDS011;13877;18.896;-99.222;2022-12-18T10:15:54;34.63;;;18.52;;
12412;SDS011;13877;18.896;-99.222;2022-12-18T10:18:45;43.58;;;19.38;;
12412;SDS011;13877;18.896;-99.222;2022-12-18T10:27:14;37.78;;;18.65;;
12412;SDS011;13877;18.896;-99.222;2022-12-18T10:29:45;36.47;;;18.30;;
12412;SDS011;13877;18.896;-99.222;2022-12-18T10:32:14;43.37;;;19.63;;
12412;SDS011;13877;18.896;-99.222;2022-12-18T10:34:49;36.88;;;18.23;;
12412;SDS011;13877;18.896;-99.222;2022-12-18T10:37:19;26.85;;;16.65;;
12412;SDS011;13877;18.896;-99.222;2022-12-18T10:42:37;30.67;;;16.08;;
12412;SDS011;13877;18.896;-99.222;2022-12-18T10:45:10;34.42;;;16.75;;
12412;SDS011;13877;18.896;-99.222;2022-12-18T10:47:49;37.13;;;15.80;;
12412;SDS011;13877;18.896;-99.222;2022-12-18T10:50:28;27.38;;;16.38;;
12412;SDS011;13877;18.896;-99.222;2022-12-18T10:52:57;33.03;;;16.00;;
12412;SDS011;13877;18.896;-99.222;2022-12-18T10:55:27;32.40;;;16.57;;
12412;SDS011;13877;18.896;-99.222;2022-12-18T11:01:04;27.42;;;14.88;;
12412;SDS011;13877;18.896;-99.222;2022-12-18T11:03:36;34.17;;;16.58;;
12412;SDS011;13877;18.896;-99.222;2022-12-18T11:06:04;34.72;;;16.67;;
12412;SDS011;13877;18.896;-99.222;2022-12-18T11:08:33;28.60;;;17.33;;
12412;SDS011;13877;18.896;-99.222;2022-12-18T11:11:01;31.40;;;17.20;;
12412;SDS011;13877;18.896;-99.222;2022-12-18T11:13:29;36.78;;;18.42;;
12412;SDS011;13877;18.896;-99.222;2022-12-18T11:15:57;36.53;;;18.95;;
12412;SDS011;13877;18.896;-99.222;2022-12-18T11:18:29;37.20;;;18.92;;
12412;SDS011;13877;18.896;-99.222;2022-12-18T11:21:08;42.35;;;18.65;;
12412;SDS011;13877;18.896;-99.222;2022-12-18T11:23:43;38.58;;;20.30;;
12412;SDS011;13877;18.896;-99.222;2022-12-18T11:26:18;37.40;;;20.10;;
12412;SDS011;13877;18.896;-99.222;2022-12-18T11:29:22;40.70;;;20.67;;
12412;SDS011;13877;18.896;-99.222;2022-12-18T11:31:43;43.90;;;21.83;;
12412;SDS011;13877;18.896;-99.222;2022-12-18T11:34:23;39.58;;;20.25;;
12412;SDS011;13877;18.896;-99.222;2022-12-18T11:36:55;49.20;;;20.45;;
12412;SDS011;13877;18.896;-99.222;2022-12-18T11:39:41;41.53;;;20.85;;
12412;SDS011;13877;18.896;-99.222;2022-12-18T11:42:43;43.40;;;20.88;;
12412;SDS011;13877;18.896;-99.222;2022-12-18T11:45:27;44.47;;;20.65;;
12412;SDS011;13877;18.896;-99.222;2022-12-18T11:48:21;40.50;;;20.88;;
12412;SDS011;13877;18.896;-99.222;2022-12-18T11:50:53;37.58;;;20.48;;
12412;SDS011;13877;18.896;-99.222;2022-12-18T11:53:26;40.22;;;20.58;;
12412;SDS011;13877;18.896;-99.222;2022-12-18T12:01:52;32.75;;;19.33;;
12412;SDS011;13877;18.896;-99.222;2022-12-18T12:12:35;38.75;;;19.55;;
12412;SDS011;13877;18.896;-99.222;2022-12-18T12:18:37;42.20;;;19.83;;
12412;SDS011;13877;18.896;-99.222;2022-12-18T12:26:26;33.40;;;18.83;;
12412;SDS011;13877;18.896;-99.222;2022-12-18T12:37:22;36.22;;;18.83;;
12412;SDS011;13877;18.896;-99.222;2022-12-18T12:40:19;33.50;;;17.58;;
12412;SDS011;13877;18.896;-99.222;2022-12-18T12:42:51;36.47;;;19.33;;
12412;SDS011;13877;18.896;-99.222;2022-12-18T12:45:56;35.00;;;16.95;;
12412;SDS011;13877;18.896;-99.222;2022-12-18T12:48:40;36.25;;;16.67;;
12412;SDS011;13877;18.896;-99.222;2022-12-18T12:51:34;34.25;;;17.08;;
12412;SDS011;13877;18.896;-99.222;2022-12-18T12:54:05;29.23;;;16.42;;
12412;SDS011;13877;18.896;-99.222;2022-12-18T12:56:46;29.13;;;16.27;;
12412;SDS011;13877;18.896;-99.222;2022-12-18T13:01:49;32.28;;;17.45;;
12412;SDS011;13877;18.896;-99.222;2022-12-18T13:04:56;28.50;;;14.95;;
12412;SDS011;13877;18.896;-99.222;2022-12-18T13:07:37;24.50;;;14.23;;
12412;SDS011;13877;18.896;-99.222;2022-12-18T13:12:53;28.52;;;13.50;;
12412;SDS011;13877;18.896;-99.222;2022-12-18T13:15:33;30.30;;;13.60;;
12412;SDS011;13877;18.896;-99.222;2022-12-18T13:20:37;24.67;;;13.32;;
12412;SDS011;13877;18.896;-99.222;2022-12-18T13:31:14;27.15;;;12.23;;
12412;SDS011;13877;18.896;-99.222;2022-12-18T13:34:14;24.20;;;13.10;;
12412;SDS011;13877;18.896;-99.222;2022-12-18T13:36:44;21.10;;;12.80;;
12412;SDS011;13877;18.896;-99.222;2022-12-18T13:41:46;26.67;;;13.52;;
12412;SDS011;13877;18.896;-99.222;2022-12-18T13:47:01;22.20;;;13.38;;
12412;SDS011;13877;18.896;-99.222;2022-12-18T13:49:37;23.65;;;13.68;;
12412;SDS011;13877;18.896;-99.222;2022-12-18T13:52:22;25.13;;;13.00;;
12412;SDS011;13877;18.896;-99.222;2022-12-18T13:54:57;21.05;;;13.50;;
12412;SDS011;13877;18.896;-99.222;2022-12-18T13:57:28;24.13;;;13.23;;
12412;SDS011;13877;18.896;-99.222;2022-12-18T13:59:57;19.63;;;12.65;;
12412;SDS011;13877;18.896;-99.222;2022-12-18T14:05:05;20.70;;;12.48;;
12412;SDS011;13877;18.896;-99.222;2022-12-18T14:07:47;22.02;;;11.35;;
12412;SDS011;13877;18.896;-99.222;2022-12-18T14:10:15;23.83;;;12.85;;
12412;SDS011;13877;18.896;-99.222;2022-12-18T14:12:52;23.85;;;12.50;;
12412;SDS011;13877;18.896;-99.222;2022-12-18T14:17:49;20.52;;;12.30;;
12412;SDS011;13877;18.896;-99.222;2022-12-18T14:20:18;21.35;;;11.25;;
12412;SDS011;13877;18.896;-99.222;2022-12-18T14:22:46;21.85;;;12.10;;
12412;SDS011;13877;18.896;-99.222;2022-12-18T14:25:20;23.35;;;12.48;;
12412;SDS011;13877;18.896;-99.222;2022-12-18T14:27:50;28.90;;;14.10;;
12412;SDS011;13877;18.896;-99.222;2022-12-18T14:30:40;22.05;;;12.30;;
12412;SDS011;13877;18.896;-99.222;2022-12-18T14:35:43;28.23;;;13.52;;
12412;SDS011;13877;18.896;-99.222;2022-12-18T14:38:39;25.63;;;12.93;;
12412;SDS011;13877;18.896;-99.222;2022-12-18T14:41:10;27.08;;;13.25;;
12412;SDS011;13877;18.896;-99.222;2022-12-18T14:43:43;28.25;;;14.30;;
12412;SDS011;13877;18.896;-99.222;2022-12-18T14:46:28;29.13;;;13.85;;
12412;SDS011;13877;18.896;-99.222;2022-12-18T14:49:04;25.05;;;13.95;;
12412;SDS011;13877;18.896;-99.222;2022-12-18T14:54:23;24.70;;;14.77;;
12412;SDS011;13877;18.896;-99.222;2022-12-18T14:56:54;24.27;;;14.35;;
12412;SDS011;13877;18.896;-99.222;2022-12-18T14:59:42;23.88;;;14.93;;
12412;SDS011;13877;18.896;-99.222;2022-12-18T15:02:18;27.13;;;16.30;;
12412;SDS011;13877;18.896;-99.222;2022-12-18T15:04:46;34.42;;;17.17;;
12412;SDS011;13877;18.896;-99.222;2022-12-18T15:07:14;219.63;;;25.85;;
12412;SDS011;13877;18.896;-99.222;2022-12-18T15:10:03;26.67;;;16.70;;
12412;SDS011;13877;18.896;-99.222;2022-12-18T15:15:04;34.03;;;18.20;;
12412;SDS011;13877;18.896;-99.222;2022-12-18T15:17:31;38.45;;;17.88;;
12412;SDS011;13877;18.896;-99.222;2022-12-18T15:20:00;32.22;;;19.10;;
12412;SDS011;13877;18.896;-99.222;2022-12-18T15:22:30;35.05;;;19.48;;
12412;SDS011;13877;18.896;-99.222;2022-12-18T15:25:01;38.17;;;20.17;;
12412;SDS011;13877;18.896;-99.222;2022-12-18T15:27:35;36.88;;;20.75;;
12412;SDS011;13877;18.896;-99.222;2022-12-18T15:32:36;42.03;;;20.40;;
12412;SDS011;13877;18.896;-99.222;2022-12-18T15:37:37;34.10;;;22.38;;
12412;SDS011;13877;18.896;-99.222;2022-12-18T15:40:06;37.25;;;19.73;;
12412;SDS011;13877;18.896;-99.222;2022-12-18T15:42:38;35.33;;;18.23;;
12412;SDS011;13877;18.896;-99.222;2022-12-18T15:45:24;29.00;;;16.80;;
12412;SDS011;13877;18.896;-99.222;2022-12-18T15:47:51;31.80;;;17.63;;
12412;SDS011;13877;18.896;-99.222;2022-12-18T15:50:17;35.28;;;19.20;;
12412;SDS011;13877;18.896;-99.222;2022-12-18T15:52:45;36.33;;;17.52;;
12412;SDS011;13877;18.896;-99.222;2022-12-18T15:55:15;34.63;;;19.05;;
12412;SDS011;13877;18.896;-99.222;2022-12-18T15:58:05;30.30;;;17.83;;
12412;SDS011;13877;18.896;-99.222;2022-12-18T16:00:34;35.15;;;18.70;;
12412;SDS011;13877;18.896;-99.222;2022-12-18T16:03:03;34.45;;;18.88;;
12412;SDS011;13877;18.896;-99.222;2022-12-18T16:05:30;41.67;;;19.77;;
12412;SDS011;13877;18.896;-99.222;2022-12-18T16:07:58;47.80;;;20.05;;
12412;SDS011;13877;18.896;-99.222;2022-12-18T16:10:25;38.00;;;21.73;;